sensor_id;sensor_type;location;lat;lon;timestamp;P1;durP1;ratioP1;P2;durP2;ratioP2
6739;SDS011;3407;49.882;10.920;2023-04-07T00:02:23;9.50;;;7.37;;
6739;SDS011;3407;49.882;10.920;2023-04-07T00:07:18;9.50;;;7.00;;
6739;SDS011;3407;49.882;10.920;2023-04-07T00:12:14;7.67;;;6.77;;
6739;SDS011;3407;49.882;10.920;2023-04-07T00:17:10;7.13;;;6.43;;
6739;SDS011;3407;49.882;10.920;2023-04-07T00:22:05;12.20;;;6.57;;
6739;SDS011;3407;49.882;10.920;2023-04-07T00:27:01;9.77;;;7.03;;
6739;SDS011;3407;49.882;10.920;2023-04-07T00:31:56;9.87;;;7.33;;
6739;SDS011;3407;49.882;10.920;2023-04-07T00:36:52;12.17;;;6.90;;
6739;SDS011;3407;49.882;10.920;2023-04-07T00:41:47;9.53;;;7.67;;
6739;SDS011;3407;49.882;10.920;2023-04-07T00:46:43;10.90;;;7.20;;
6739;SDS011;3407;49.882;10.920;2023-04-07T00:51:41;6.87;;;6.13;;
6739;SDS011;3407;49.882;10.920;2023-04-07T00:56:36;8.67;;;7.27;;
6739;SDS011;3407;49.882;10.920;2023-04-07T01:01:38;9.27;;;7.03;;
6739;SDS011;3407;49.882;10.920;2023-04-07T01:06:42;9.40;;;7.10;;
6739;SDS011;3407;49.882;10.920;2023-04-07T01:11:43;9.97;;;8.30;;
6739;SDS011;3407;49.882;10.920;2023-04-07T01:16:49;8.90;;;7.23;;
6739;SDS011;3407;49.882;10.920;2023-04-07T01:21:45;7.93;;;7.03;;
6739;SDS011;3407;49.882;10.920;2023-04-07T01:26:43;7.97;;;7.27;;
6739;SDS011;3407;49.882;10.920;2023-04-07T01:31:41;12.53;;;7.43;;
6739;SDS011;3407;49.882;10.920;2023-04-07T01:36:38;10.47;;;7.57;;
6739;SDS011;3407;49.882;10.920;2023-04-07T01:41:35;7.97;;;7.23;;
6739;SDS011;3407;49.882;10.920;2023-04-07T01:46:32;11.57;;;6.83;;
6739;SDS011;3407;49.882;10.920;2023-04-07T01:51:28;8.10;;;6.30;;
6739;SDS011;3407;49.882;10.920;2023-04-07T01:56:26;9.27;;;7.70;;
6739;SDS011;3407;49.882;10.920;2023-04-07T02:01:22;7.87;;;6.00;;
6739;SDS011;3407;49.882;10.920;2023-04-07T02:06:18;13.83;;;7.13;;
6739;SDS011;3407;49.882;10.920;2023-04-07T02:11:19;8.83;;;7.93;;
6739;SDS011;3407;49.882;10.920;2023-04-07T02:16:16;8.90;;;6.67;;
6739;SDS011;3407;49.882;10.920;2023-04-07T02:21:13;9.07;;;6.87;;
6739;SDS011;3407;49.882;10.920;2023-04-07T02:26:10;11.60;;;8.30;;
6739;SDS011;3407;49.882;10.920;2023-04-07T02:31:05;8.93;;;7.97;;
6739;SDS011;3407;49.882;10.920;2023-04-07T02:36:01;9.70;;;7.50;;
6739;SDS011;3407;49.882;10.920;2023-04-07T02:40:56;9.93;;;6.90;;
6739;SDS011;3407;49.882;10.920;2023-04-07T02:45:53;6.77;;;6.10;;
6739;SDS011;3407;49.882;10.920;2023-04-07T02:50:49;8.13;;;7.20;;
6739;SDS011;3407;49.882;10.920;2023-04-07T02:55:44;7.53;;;6.23;;
6739;SDS011;3407;49.882;10.920;2023-04-07T03:00:40;7.93;;;6.80;;
6739;SDS011;3407;49.882;10.920;2023-04-07T03:05:35;10.40;;;6.13;;
6739;SDS011;3407;49.882;10.920;2023-04-07T03:10:31;8.70;;;6.30;;
6739;SDS011;3407;49.882;10.920;2023-04-07T03:15:26;7.23;;;6.30;;
6739;SDS011;3407;49.882;10.920;2023-04-07T03:20:22;8.27;;;7.17;;
6739;SDS011;3407;49.882;10.920;2023-04-07T03:25:17;8.23;;;6.40;;
6739;SDS011;3407;49.882;10.920;2023-04-07T03:30:13;8.03;;;6.77;;
6739;SDS011;3407;49.882;10.920;2023-04-07T03:35:08;6.23;;;5.60;;
6739;SDS011;3407;49.882;10.920;2023-04-07T03:40:04;12.47;;;6.67;;
6739;SDS011;3407;49.882;10.920;2023-04-07T03:45:00;9.40;;;6.90;;
6739;SDS011;3407;49.882;10.920;2023-04-07T03:49:56;7.33;;;6.40;;
6739;SDS011;3407;49.882;10.920;2023-04-07T03:54:51;9.97;;;6.10;;
6739;SDS011;3407;49.882;10.920;2023-04-07T03:59:47;8.93;;;6.00;;
6739;SDS011;3407;49.882;10.920;2023-04-07T04:04:45;7.90;;;6.57;;
6739;SDS011;3407;49.882;10.920;2023-04-07T04:09:40;8.27;;;7.00;;
6739;SDS011;3407;49.882;10.920;2023-04-07T04:14:36;6.70;;;6.10;;
6739;SDS011;3407;49.882;10.920;2023-04-07T04:19:31;7.60;;;6.20;;
6739;SDS011;3407;49.882;10.920;2023-04-07T04:24:27;7.73;;;6.97;;
6739;SDS011;3407;49.882;10.920;2023-04-07T04:29:22;7.93;;;6.37;;
6739;SDS011;3407;49.882;10.920;2023-04-07T04:34:18;7.83;;;6.90;;
6739;SDS011;3407;49.882;10.920;2023-04-07T04:39:13;9.10;;;6.83;;
6739;SDS011;3407;49.882;10.920;2023-04-07T04:44:09;7.80;;;6.70;;
6739;SDS011;3407;49.882;10.920;2023-04-07T04:49:05;7.40;;;6.20;;
6739;SDS011;3407;49.882;10.920;2023-04-07T04:54:01;7.90;;;6.80;;
6739;SDS011;3407;49.882;10.920;2023-04-07T04:58:57;13.03;;;7.57;;
6739;SDS011;3407;49.882;10.920;2023-04-07T05:03:53;10.47;;;6.20;;
6739;SDS011;3407;49.882;10.920;2023-04-07T05:08:48;8.07;;;6.60;;
6739;SDS011;3407;49.882;10.920;2023-04-07T05:13:44;8.47;;;6.67;;
6739;SDS011;3407;49.882;10.920;2023-04-07T05:18:39;8.70;;;6.77;;
6739;SDS011;3407;49.882;10.920;2023-04-07T05:23:35;7.50;;;5.77;;
6739;SDS011;3407;49.882;10.920;2023-04-07T05:28:31;10.50;;;6.00;;
6739;SDS011;3407;49.882;10.920;2023-04-07T05:33:26;9.40;;;7.33;;
6739;SDS011;3407;49.882;10.920;2023-04-07T05:38:22;9.93;;;6.60;;
6739;SDS011;3407;49.882;10.920;2023-04-07T05:43:17;7.20;;;5.73;;
6739;SDS011;3407;49.882;10.920;2023-04-07T05:48:13;10.10;;;6.50;;
6739;SDS011;3407;49.882;10.920;2023-04-07T05:53:08;9.77;;;7.43;;
6739;SDS011;3407;49.882;10.920;2023-04-07T05:58:04;8.77;;;7.03;;
6739;SDS011;3407;49.882;10.920;2023-04-07T06:02:59;10.07;;;6.97;;
6739;SDS011;3407;49.882;10.920;2023-04-07T06:07:55;11.13;;;6.60;;
6739;SDS011;3407;49.882;10.920;2023-04-07T06:12:51;9.83;;;7.77;;
6739;SDS011;3407;49.882;10.920;2023-04-07T06:17:46;11.67;;;8.80;;
6739;SDS011;3407;49.882;10.920;2023-04-07T06:22:42;9.27;;;7.80;;
6739;SDS011;3407;49.882;10.920;2023-04-07T06:27:37;10.50;;;7.80;;
6739;SDS011;3407;49.882;10.920;2023-04-07T06:32:33;9.33;;;7.93;;
6739;SDS011;3407;49.882;10.920;2023-04-07T06:37:28;11.30;;;8.23;;
6739;SDS011;3407;49.882;10.920;2023-04-07T06:42:24;12.63;;;8.53;;
6739;SDS011;3407;49.882;10.920;2023-04-07T06:47:19;9.30;;;7.63;;
6739;SDS011;3407;49.882;10.920;2023-04-07T06:52:15;9.20;;;8.10;;
6739;SDS011;3407;49.882;10.920;2023-04-07T06:57:11;10.70;;;8.00;;
6739;SDS011;3407;49.882;10.920;2023-04-07T07:02:06;9.87;;;7.93;;
6739;SDS011;3407;49.882;10.920;2023-04-07T07:07:02;8.47;;;7.53;;
6739;SDS011;3407;49.882;10.920;2023-04-07T07:11:57;12.33;;;7.93;;
6739;SDS011;3407;49.882;10.920;2023-04-07T07:16:55;10.30;;;7.90;;
6739;SDS011;3407;49.882;10.920;2023-04-07T07:21:51;10.73;;;7.33;;
6739;SDS011;3407;49.882;10.920;2023-04-07T07:26:47;9.33;;;6.97;;
6739;SDS011;3407;49.882;10.920;2023-04-07T07:31:42;8.77;;;7.30;;
6739;SDS011;3407;49.882;10.920;2023-04-07T07:36:38;9.20;;;7.23;;
6739;SDS011;3407;49.882;10.920;2023-04-07T07:41:33;8.77;;;7.17;;
6739;SDS011;3407;49.882;10.920;2023-04-07T07:46:29;9.50;;;7.57;;
6739;SDS011;3407;49.882;10.920;2023-04-07T07:51:25;8.70;;;7.17;;
6739;SDS011;3407;49.882;10.920;2023-04-07T07:56:21;10.20;;;8.13;;
6739;SDS011;3407;49.882;10.920;2023-04-07T08:01:17;12.13;;;7.80;;
6739;SDS011;3407;49.882;10.920;2023-04-07T08:06:13;9.43;;;7.20;;
6739;SDS011;3407;49.882;10.920;2023-04-07T08:11:08;8.77;;;7.87;;
6739;SDS011;3407;49.882;10.920;2023-04-07T08:16:04;9.57;;;7.70;;
6739;SDS011;3407;49.882;10.920;2023-04-07T08:21:02;9.03;;;7.60;;
6739;SDS011;3407;49.882;10.920;2023-04-07T08:25:58;9.97;;;7.23;;
6739;SDS011;3407;49.882;10.920;2023-04-07T08:30:54;8.30;;;7.40;;
6739;SDS011;3407;49.882;10.920;2023-04-07T08:35:49;8.87;;;6.93;;
6739;SDS011;3407;49.882;10.920;2023-04-07T08:40:45;8.07;;;7.05;;
6739;SDS011;3407;49.882;10.920;2023-04-07T08:45:42;8.00;;;6.88;;
6739;SDS011;3407;49.882;10.920;2023-04-07T08:50:41;8.98;;;6.57;;
6739;SDS011;3407;49.882;10.920;2023-04-07T08:55:39;8.50;;;6.78;;
6739;SDS011;3407;49.882;10.920;2023-04-07T09:00:36;7.90;;;6.35;;
6739;SDS011;3407;49.882;10.920;2023-04-07T09:05:32;7.50;;;6.63;;
6739;SDS011;3407;49.882;10.920;2023-04-07T09:10:29;7.35;;;6.32;;
6739;SDS011;3407;49.882;10.920;2023-04-07T09:15:28;10.23;;;6.90;;
6739;SDS011;3407;49.882;10.920;2023-04-07T09:20:25;8.75;;;6.95;;
6739;SDS011;3407;49.882;10.920;2023-04-07T09:25:22;7.93;;;6.25;;
6739;SDS011;3407;49.882;10.920;2023-04-07T09:30:20;8.77;;;6.97;;
6739;SDS011;3407;49.882;10.920;2023-04-07T09:35:16;8.25;;;7.15;;
6739;SDS011;3407;49.882;10.920;2023-04-07T09:40:12;7.72;;;6.88;;
6739;SDS011;3407;49.882;10.920;2023-04-07T09:45:25;8.07;;;6.47;;
6739;SDS011;3407;49.882;10.920;2023-04-07T09:50:31;7.50;;;6.63;;
6739;SDS011;3407;49.882;10.920;2023-04-07T09:55:34;8.10;;;7.13;;
6739;SDS011;3407;49.882;10.920;2023-04-07T10:00:30;10.50;;;6.93;;
6739;SDS011;3407;49.882;10.920;2023-04-07T10:05:26;7.90;;;6.60;;
6739;SDS011;3407;49.882;10.920;2023-04-07T10:10:22;10.95;;;7.15;;
6739;SDS011;3407;49.882;10.920;2023-04-07T10:15:19;8.65;;;7.63;;
6739;SDS011;3407;49.882;10.920;2023-04-07T10:20:18;9.07;;;7.40;;
6739;SDS011;3407;49.882;10.920;2023-04-07T10:25:17;10.18;;;8.35;;
6739;SDS011;3407;49.882;10.920;2023-04-07T10:30:16;9.45;;;7.70;;
6739;SDS011;3407;49.882;10.920;2023-04-07T10:35:14;8.63;;;7.53;;
6739;SDS011;3407;49.882;10.920;2023-04-07T10:45:12;8.77;;;7.18;;
6739;SDS011;3407;49.882;10.920;2023-04-07T10:55:46;8.65;;;7.75;;
6739;SDS011;3407;49.882;10.920;2023-04-07T11:00:38;8.85;;;7.18;;
6739;SDS011;3407;49.882;10.920;2023-04-07T11:05:34;8.52;;;7.65;;
6739;SDS011;3407;49.882;10.920;2023-04-07T11:10:33;9.80;;;8.80;;
6739;SDS011;3407;49.882;10.920;2023-04-07T11:15:29;9.85;;;8.80;;
6739;SDS011;3407;49.882;10.920;2023-04-07T11:20:39;8.70;;;7.80;;
6739;SDS011;3407;49.882;10.920;2023-04-07T11:25:35;9.93;;;8.63;;
6739;SDS011;3407;49.882;10.920;2023-04-07T11:30:31;10.25;;;9.18;;
6739;SDS011;3407;49.882;10.920;2023-04-07T11:35:26;12.32;;;9.63;;
6739;SDS011;3407;49.882;10.920;2023-04-07T11:40:32;10.10;;;8.80;;
6739;SDS011;3407;49.882;10.920;2023-04-07T11:45:29;10.07;;;8.98;;
6739;SDS011;3407;49.882;10.920;2023-04-07T11:50:40;10.13;;;8.18;;
6739;SDS011;3407;49.882;10.920;2023-04-07T11:55:36;10.20;;;8.97;;
6739;SDS011;3407;49.882;10.920;2023-04-07T12:00:32;8.95;;;7.72;;
6739;SDS011;3407;49.882;10.920;2023-04-07T12:05:40;9.20;;;7.55;;
6739;SDS011;3407;49.882;10.920;2023-04-07T12:10:39;8.40;;;7.50;;
6739;SDS011;3407;49.882;10.920;2023-04-07T12:15:35;9.73;;;8.20;;
6739;SDS011;3407;49.882;10.920;2023-04-07T12:20:31;8.67;;;7.37;;
6739;SDS011;3407;49.882;10.920;2023-04-07T12:25:27;8.40;;;7.50;;
6739;SDS011;3407;49.882;10.920;2023-04-07T12:30:22;8.30;;;7.50;;
6739;SDS011;3407;49.882;10.920;2023-04-07T12:35:18;10.60;;;7.50;;
6739;SDS011;3407;49.882;10.920;2023-04-07T12:40:13;8.60;;;6.90;;
6739;SDS011;3407;49.882;10.920;2023-04-07T12:45:10;8.40;;;7.38;;
6739;SDS011;3407;49.882;10.920;2023-04-07T12:50:05;9.48;;;7.55;;
6739;SDS011;3407;49.882;10.920;2023-04-07T12:55:02;7.93;;;7.13;;
6739;SDS011;3407;49.882;10.920;2023-04-07T12:59:57;9.18;;;7.70;;
6739;SDS011;3407;49.882;10.920;2023-04-07T13:04:53;8.30;;;7.50;;
6739;SDS011;3407;49.882;10.920;2023-04-07T13:09:48;8.10;;;7.23;;
6739;SDS011;3407;49.882;10.920;2023-04-07T13:14:44;7.57;;;6.80;;
6739;SDS011;3407;49.882;10.920;2023-04-07T13:19:40;8.67;;;7.53;;
6739;SDS011;3407;49.882;10.920;2023-04-07T13:24:35;8.30;;;6.67;;
6739;SDS011;3407;49.882;10.920;2023-04-07T13:29:31;11.30;;;8.23;;
6739;SDS011;3407;49.882;10.920;2023-04-07T13:34:27;12.77;;;8.20;;
6739;SDS011;3407;49.882;10.920;2023-04-07T13:39:22;11.87;;;8.40;;
6739;SDS011;3407;49.882;10.920;2023-04-07T13:44:18;9.17;;;7.73;;
6739;SDS011;3407;49.882;10.920;2023-04-07T13:49:13;9.30;;;7.80;;
6739;SDS011;3407;49.882;10.920;2023-04-07T13:54:09;9.23;;;8.23;;
6739;SDS011;3407;49.882;10.920;2023-04-07T13:59:05;9.17;;;7.30;;
6739;SDS011;3407;49.882;10.920;2023-04-07T14:04:01;10.90;;;7.97;;
6739;SDS011;3407;49.882;10.920;2023-04-07T14:08:57;8.40;;;7.03;;
6739;SDS011;3407;49.882;10.920;2023-04-07T14:13:53;10.53;;;7.80;;
6739;SDS011;3407;49.882;10.920;2023-04-07T14:18:50;8.73;;;7.20;;
6739;SDS011;3407;49.882;10.920;2023-04-07T14:23:46;9.77;;;6.77;;
6739;SDS011;3407;49.882;10.920;2023-04-07T14:28:42;10.63;;;7.57;;
6739;SDS011;3407;49.882;10.920;2023-04-07T14:33:37;9.47;;;7.13;;
6739;SDS011;3407;49.882;10.920;2023-04-07T14:38:33;8.97;;;7.80;;
6739;SDS011;3407;49.882;10.920;2023-04-07T14:43:28;8.90;;;7.27;;
6739;SDS011;3407;49.882;10.920;2023-04-07T14:48:24;8.77;;;6.83;;
6739;SDS011;3407;49.882;10.920;2023-04-07T14:53:19;9.23;;;7.10;;
6739;SDS011;3407;49.882;10.920;2023-04-07T14:58:15;15.03;;;8.03;;
6739;SDS011;3407;49.882;10.920;2023-04-07T15:03:11;9.27;;;7.47;;
6739;SDS011;3407;49.882;10.920;2023-04-07T15:08:06;8.70;;;7.80;;
6739;SDS011;3407;49.882;10.920;2023-04-07T15:13:02;7.97;;;7.03;;
6739;SDS011;3407;49.882;10.920;2023-04-07T15:17:57;8.27;;;6.93;;
6739;SDS011;3407;49.882;10.920;2023-04-07T15:22:53;8.87;;;7.60;;
6739;SDS011;3407;49.882;10.920;2023-04-07T15:27:48;8.83;;;7.00;;
6739;SDS011;3407;49.882;10.920;2023-04-07T15:33:00;10.57;;;7.43;;
6739;SDS011;3407;49.882;10.920;2023-04-07T15:37:58;8.20;;;6.87;;
6739;SDS011;3407;49.882;10.920;2023-04-07T15:42:53;10.10;;;7.83;;
6739;SDS011;3407;49.882;10.920;2023-04-07T15:47:50;10.47;;;7.27;;
6739;SDS011;3407;49.882;10.920;2023-04-07T15:52:46;9.00;;;6.67;;
6739;SDS011;3407;49.882;10.920;2023-04-07T15:57:42;10.00;;;6.93;;
6739;SDS011;3407;49.882;10.920;2023-04-07T16:02:37;8.97;;;7.13;;
6739;SDS011;3407;49.882;10.920;2023-04-07T16:07:33;10.90;;;7.70;;
6739;SDS011;3407;49.882;10.920;2023-04-07T16:12:28;9.90;;;7.23;;
6739;SDS011;3407;49.882;10.920;2023-04-07T16:17:24;11.60;;;8.10;;
6739;SDS011;3407;49.882;10.920;2023-04-07T16:22:20;8.57;;;6.97;;
6739;SDS011;3407;49.882;10.920;2023-04-07T16:27:15;8.40;;;6.43;;
6739;SDS011;3407;49.882;10.920;2023-04-07T16:32:11;12.27;;;7.70;;
6739;SDS011;3407;49.882;10.920;2023-04-07T16:37:07;8.87;;;7.00;;
6739;SDS011;3407;49.882;10.920;2023-04-07T16:42:03;11.97;;;7.77;;
6739;SDS011;3407;49.882;10.920;2023-04-07T16:46:58;9.97;;;7.50;;
6739;SDS011;3407;49.882;10.920;2023-04-07T16:51:54;10.13;;;7.23;;
6739;SDS011;3407;49.882;10.920;2023-04-07T16:56:49;9.80;;;7.30;;
6739;SDS011;3407;49.882;10.920;2023-04-07T17:01:45;15.03;;;7.77;;
6739;SDS011;3407;49.882;10.920;2023-04-07T17:06:41;8.93;;;7.33;;
6739;SDS011;3407;49.882;10.920;2023-04-07T17:11:36;9.30;;;6.93;;
6739;SDS011;3407;49.882;10.920;2023-04-07T17:16:32;9.80;;;7.40;;
6739;SDS011;3407;49.882;10.920;2023-04-07T17:21:27;10.13;;;7.63;;
6739;SDS011;3407;49.882;10.920;2023-04-07T17:26:23;9.37;;;7.43;;
6739;SDS011;3407;49.882;10.920;2023-04-07T17:31:20;10.27;;;7.77;;
6739;SDS011;3407;49.882;10.920;2023-04-07T17:36:16;9.23;;;7.70;;
6739;SDS011;3407;49.882;10.920;2023-04-07T17:41:12;8.57;;;7.30;;
6739;SDS011;3407;49.882;10.920;2023-04-07T17:46:08;13.43;;;8.63;;
6739;SDS011;3407;49.882;10.920;2023-04-07T17:51:03;12.47;;;8.63;;
6739;SDS011;3407;49.882;10.920;2023-04-07T17:55:59;13.03;;;9.43;;
6739;SDS011;3407;49.882;10.920;2023-04-07T18:00:55;12.70;;;9.47;;
6739;SDS011;3407;49.882;10.920;2023-04-07T18:05:51;42.77;;;19.37;;
6739;SDS011;3407;49.882;10.920;2023-04-07T18:10:46;15.13;;;9.53;;
6739;SDS011;3407;49.882;10.920;2023-04-07T18:15:42;9.97;;;7.17;;
6739;SDS011;3407;49.882;10.920;2023-04-07T18:20:37;8.73;;;6.97;;
6739;SDS011;3407;49.882;10.920;2023-04-07T18:25:33;9.07;;;7.07;;
6739;SDS011;3407;49.882;10.920;2023-04-07T18:30:29;8.20;;;6.53;;
6739;SDS011;3407;49.882;10.920;2023-04-07T18:35:24;7.73;;;5.97;;
6739;SDS011;3407;49.882;10.920;2023-04-07T18:40:20;8.67;;;6.77;;
6739;SDS011;3407;49.882;10.920;2023-04-07T18:45:15;8.50;;;6.57;;
6739;SDS011;3407;49.882;10.920;2023-04-07T18:50:11;5.17;;;4.23;;
6739;SDS011;3407;49.882;10.920;2023-04-07T18:55:07;7.30;;;4.67;;
6739;SDS011;3407;49.882;10.920;2023-04-07T19:00:05;5.57;;;4.10;;
6739;SDS011;3407;49.882;10.920;2023-04-07T19:05:01;6.43;;;4.20;;
6739;SDS011;3407;49.882;10.920;2023-04-07T19:09:57;4.30;;;3.90;;
6739;SDS011;3407;49.882;10.920;2023-04-07T19:14:52;7.27;;;4.37;;
6739;SDS011;3407;49.882;10.920;2023-04-07T19:19:48;6.90;;;5.07;;
6739;SDS011;3407;49.882;10.920;2023-04-07T19:24:43;7.10;;;4.90;;
6739;SDS011;3407;49.882;10.920;2023-04-07T19:29:39;5.67;;;4.93;;
6739;SDS011;3407;49.882;10.920;2023-04-07T19:34:34;5.77;;;4.80;;
6739;SDS011;3407;49.882;10.920;2023-04-07T19:39:30;6.77;;;5.33;;
6739;SDS011;3407;49.882;10.920;2023-04-07T19:44:26;5.93;;;5.17;;
6739;SDS011;3407;49.882;10.920;2023-04-07T19:49:21;7.23;;;4.43;;
6739;SDS011;3407;49.882;10.920;2023-04-07T19:54:17;5.00;;;4.50;;
6739;SDS011;3407;49.882;10.920;2023-04-07T19:59:12;5.07;;;4.53;;
6739;SDS011;3407;49.882;10.920;2023-04-07T20:04:07;5.83;;;3.87;;
6739;SDS011;3407;49.882;10.920;2023-04-07T20:09:03;4.53;;;4.13;;
6739;SDS011;3407;49.882;10.920;2023-04-07T20:13:58;6.07;;;4.20;;
6739;SDS011;3407;49.882;10.920;2023-04-07T20:18:55;10.77;;;4.37;;
6739;SDS011;3407;49.882;10.920;2023-04-07T20:23:50;4.90;;;4.20;;
6739;SDS011;3407;49.882;10.920;2023-04-07T20:28:46;5.47;;;4.87;;
6739;SDS011;3407;49.882;10.920;2023-04-07T20:33:41;7.67;;;5.90;;
6739;SDS011;3407;49.882;10.920;2023-04-07T20:38:37;5.47;;;4.93;;
6739;SDS011;3407;49.882;10.920;2023-04-07T20:43:32;5.83;;;4.70;;
6739;SDS011;3407;49.882;10.920;2023-04-07T20:48:28;6.53;;;5.03;;
6739;SDS011;3407;49.882;10.920;2023-04-07T20:53:23;10.63;;;5.73;;
6739;SDS011;3407;49.882;10.920;2023-04-07T20:58:19;10.40;;;6.60;;
6739;SDS011;3407;49.882;10.920;2023-04-07T21:03:14;15.83;;;7.97;;
6739;SDS011;3407;49.882;10.920;2023-04-07T21:08:10;15.20;;;7.33;;
6739;SDS011;3407;49.882;10.920;2023-04-07T21:13:05;10.63;;;6.57;;
6739;SDS011;3407;49.882;10.920;2023-04-07T21:18:01;9.47;;;5.33;;
6739;SDS011;3407;49.882;10.920;2023-04-07T21:22:57;9.97;;;6.33;;
6739;SDS011;3407;49.882;10.920;2023-04-07T21:27:53;36.20;;;15.37;;
6739;SDS011;3407;49.882;10.920;2023-04-07T21:32:49;13.67;;;7.73;;
6739;SDS011;3407;49.882;10.920;2023-04-07T21:37:45;13.53;;;7.10;;
6739;SDS011;3407;49.882;10.920;2023-04-07T21:42:40;12.70;;;6.90;;
6739;SDS011;3407;49.882;10.920;2023-04-07T21:47:36;9.80;;;6.17;;
6739;SDS011;3407;49.882;10.920;2023-04-07T21:52:31;16.60;;;6.40;;
6739;SDS011;3407;49.882;10.920;2023-04-07T21:57:27;9.97;;;5.27;;
6739;SDS011;3407;49.882;10.920;2023-04-07T22:02:22;5.87;;;4.83;;
6739;SDS011;3407;49.882;10.920;2023-04-07T22:07:18;6.83;;;4.73;;
6739;SDS011;3407;49.882;10.920;2023-04-07T22:12:13;6.77;;;4.67;;
6739;SDS011;3407;49.882;10.920;2023-04-07T22:17:09;9.27;;;4.97;;
6739;SDS011;3407;49.882;10.920;2023-04-07T22:22:05;5.23;;;4.10;;
6739;SDS011;3407;49.882;10.920;2023-04-07T22:27:02;6.60;;;4.40;;
6739;SDS011;3407;49.882;10.920;2023-04-07T22:31:57;4.93;;;4.43;;
6739;SDS011;3407;49.882;10.920;2023-04-07T22:36:53;5.73;;;4.70;;
6739;SDS011;3407;49.882;10.920;2023-04-07T22:41:48;8.63;;;5.67;;
6739;SDS011;3407;49.882;10.920;2023-04-07T22:46:44;14.07;;;6.70;;
6739;SDS011;3407;49.882;10.920;2023-04-07T22:51:39;10.87;;;7.47;;
6739;SDS011;3407;49.882;10.920;2023-04-07T22:56:35;14.87;;;9.03;;
6739;SDS011;3407;49.882;10.920;2023-04-07T23:01:31;12.67;;;8.60;;
6739;SDS011;3407;49.882;10.920;2023-04-07T23:06:26;8.50;;;6.77;;
6739;SDS011;3407;49.882;10.920;2023-04-07T23:11:22;8.33;;;6.57;;
6739;SDS011;3407;49.882;10.920;2023-04-07T23:16:18;6.43;;;5.83;;
6739;SDS011;3407;49.882;10.920;2023-04-07T23:21:13;9.63;;;6.60;;
6739;SDS011;3407;49.882;10.920;2023-04-07T23:26:09;7.07;;;5.80;;
6739;SDS011;3407;49.882;10.920;2023-04-07T23:31:05;7.77;;;5.57;;
6739;SDS011;3407;49.882;10.920;2023-04-07T23:36:00;8.63;;;6.50;;
6739;SDS011;3407;49.882;10.920;2023-04-07T23:40:56;9.63;;;7.07;;
6739;SDS011;3407;49.882;10.920;2023-04-07T23:45:52;10.57;;;8.07;;
6739;SDS011;3407;49.882;10.920;2023-04-07T23:50:47;16.13;;;10.13;;
6739;SDS011;3407;49.882;10.920;2023-04-07T23:55:44;21.40;;;12.83;;
